createdAt,value
2019-04-28T00:00:18.670Z,6.40
2019-04-28T00:02:46.230Z,6.40
2019-04-28T00:05:13.769Z,6.40
2019-04-28T00:07:41.344Z,6.50
2019-04-28T00:10:10.957Z,6.50
2019-04-28T00:12:38.575Z,6.50
2019-04-28T00:15:06.158Z,6.50
2019-04-28T00:17:33.689Z,6.50
2019-04-28T00:20:02.864Z,6.50
2019-04-28T00:22:51.528Z,6.60
2019-04-28T00:25:23.725Z,6.60
2019-04-28T00:27:51.649Z,6.60
2019-04-28T00:30:19.213Z,6.60
2019-04-28T00:32:46.737Z,6.60
2019-04-28T00:35:14.296Z,6.60
2019-04-28T00:37:41.885Z,6.70
2019-04-28T00:40:11.120Z,6.80
2019-04-28T00:42:38.935Z,6.80
2019-04-28T00:45:07.814Z,6.80
2019-04-28T00:47:35.353Z,6.80
2019-04-28T00:50:03.899Z,6.80
2019-04-28T00:52:31.970Z,6.80
2019-04-28T00:55:01.159Z,6.90
2019-04-28T00:57:30.862Z,6.80
2019-04-28T00:59:58.961Z,6.80
2019-04-28T01:02:28.358Z,6.80
2019-04-28T01:04:55.874Z,6.80
2019-04-28T01:07:23.416Z,6.80
2019-04-28T01:09:51.695Z,6.80
2019-04-28T01:12:21.294Z,6.80
2019-04-28T01:14:49.774Z,6.70
2019-04-28T01:17:31.499Z,6.70
2019-04-28T01:20:00.667Z,6.70
2019-04-28T01:22:29.989Z,6.70
2019-04-28T01:24:59.291Z,6.80
2019-04-28T01:27:31.516Z,6.80
2019-04-28T01:30:07.966Z,6.80
2019-04-28T01:32:31.620Z,6.80
2019-04-28T01:34:59.856Z,6.80
2019-04-28T01:37:29.545Z,6.80
2019-04-28T01:39:56.858Z,6.70
2019-04-28T01:42:24.404Z,6.70
2019-04-28T01:44:51.926Z,6.70
2019-04-28T01:47:20.452Z,6.50
2019-04-28T01:49:50.061Z,6.40
2019-04-28T01:52:17.458Z,6.20
2019-04-28T01:55:04.426Z,6.10
2019-04-28T01:57:31.978Z,6.10
2019-04-28T01:59:59.971Z,6.00
2019-04-28T02:02:29.806Z,6.10
2019-04-28T02:04:56.929Z,6.00
2019-04-28T02:07:24.461Z,6.10
2019-04-28T02:09:52.021Z,6.10
2019-04-28T02:12:20.388Z,6.10
2019-04-28T02:14:48.074Z,6.10
2019-04-28T02:17:15.738Z,6.10
2019-04-28T02:19:43.275Z,6.20
2019-04-28T02:22:20.032Z,6.30
2019-04-28T02:24:47.471Z,6.20
2019-04-28T02:27:15.386Z,6.40
2019-04-28T02:29:42.927Z,6.30
2019-04-28T02:32:12.050Z,6.20
2019-04-28T02:34:41.126Z,6.30
2019-04-28T02:37:11.257Z,6.20
2019-04-28T02:39:40.606Z,6.20
2019-04-28T02:42:07.605Z,6.20
2019-04-28T02:44:35.389Z,6.30
2019-04-28T02:47:02.980Z,6.40
2019-04-28T02:49:35.199Z,6.30
2019-04-28T02:52:04.380Z,6.40
2019-04-28T02:54:31.928Z,6.40
2019-04-28T02:57:01.251Z,6.50
2019-04-28T02:59:30.470Z,6.50
2019-04-28T03:02:00.459Z,6.50
2019-04-28T03:04:30.612Z,6.50
2019-04-28T03:06:56.720Z,6.50
2019-04-28T03:09:24.298Z,6.50
2019-04-28T03:11:51.837Z,6.50
2019-04-28T03:14:20.962Z,6.50
2019-04-28T03:16:50.975Z,6.50
2019-04-28T03:19:20.950Z,6.50
2019-04-28T03:21:47.226Z,6.40
2019-04-28T03:24:15.047Z,6.40
2019-04-28T03:27:03.358Z,6.30
2019-04-28T03:29:31.487Z,6.10
2019-04-28T03:32:18.248Z,6.00
2019-04-28T03:34:44.525Z,6.00
2019-04-28T03:37:12.264Z,6.00
2019-04-28T03:39:40.498Z,6.00
2019-04-28T03:42:08.249Z,5.90
2019-04-28T03:44:35.778Z,5.90
2019-04-28T03:47:03.423Z,6.00
2019-04-28T03:49:32.135Z,5.90
2019-04-28T03:52:00.506Z,5.90
2019-04-28T03:54:30.225Z,5.90
2019-04-28T03:56:57.326Z,5.90
2019-04-28T03:59:25.135Z,5.90
2019-04-28T04:01:59.269Z,5.90
2019-04-28T04:04:22.200Z,6.00
2019-04-28T04:06:50.899Z,5.90
2019-04-28T04:09:21.172Z,5.80
2019-04-28T04:12:00.391Z,5.80
2019-04-28T04:14:30.992Z,5.80
2019-04-28T04:17:03.095Z,5.80
2019-04-28T04:19:32.289Z,5.80
2019-04-28T04:22:00.404Z,5.80
2019-04-28T04:24:30.590Z,5.80
2019-04-28T04:27:00.868Z,5.80
2019-04-28T04:29:30.849Z,5.80
2019-04-28T04:32:13.663Z,5.80
2019-04-28T04:34:26.928Z,5.80
2019-04-28T04:36:54.483Z,5.90
2019-04-28T04:39:22.390Z,5.80
2019-04-28T04:41:50.467Z,5.80
2019-04-28T04:44:20.861Z,5.80
2019-04-28T04:46:47.552Z,5.90
2019-04-28T04:49:15.082Z,5.90
2019-04-28T04:51:43.852Z,6.00
2019-04-28T04:54:11.690Z,5.90
2019-04-28T04:56:40.115Z,5.90
2019-04-28T04:59:10.062Z,5.90
2019-04-28T05:01:41.466Z,5.90
2019-04-28T05:04:22.968Z,6.00
2019-04-28T05:06:50.556Z,6.10
2019-04-28T05:09:19.643Z,6.20
2019-04-28T05:11:47.267Z,6.30
2019-04-28T05:14:14.829Z,6.40
2019-04-28T05:16:42.351Z,6.50
2019-04-28T05:19:10.378Z,6.60
2019-04-28T05:21:40.231Z,6.60
2019-04-28T05:24:15.640Z,6.60
2019-04-28T05:26:47.631Z,6.70
2019-04-28T05:29:10.899Z,6.70
2019-04-28T05:31:40.081Z,6.70
2019-04-28T05:34:09.177Z,6.80
2019-04-28T05:36:42.505Z,6.80
2019-04-28T05:39:06.915Z,6.80
2019-04-28T05:41:34.479Z,6.80
2019-04-28T05:44:02.163Z,6.90
2019-04-28T05:46:30.070Z,6.80
2019-04-28T05:49:02.013Z,6.80
2019-04-28T05:51:31.444Z,6.90
2019-04-28T05:54:12.620Z,6.90
2019-04-28T05:57:02.190Z,6.90
2019-04-28T05:59:47.604Z,6.90
2019-04-28T06:02:30.556Z,6.80
2019-04-28T06:04:59.908Z,6.70
2019-04-28T06:07:30.502Z,6.70
2019-04-28T06:10:00.037Z,6.70
2019-04-28T06:12:27.355Z,6.70
2019-04-28T06:14:54.903Z,6.80
2019-04-28T06:17:22.433Z,6.90
2019-04-28T06:19:50.507Z,7.00
2019-04-28T06:22:18.076Z,7.20
2019-04-28T06:24:45.635Z,7.40
2019-04-28T06:27:13.649Z,7.50
2019-04-28T06:29:41.235Z,7.60
2019-04-28T06:32:08.873Z,7.80
2019-04-28T06:34:36.394Z,7.90
2019-04-28T06:37:03.943Z,7.80
2019-04-28T06:39:31.484Z,7.80
2019-04-28T06:41:59.047Z,7.90
2019-04-28T06:44:26.580Z,8.00
2019-04-28T06:46:54.278Z,8.20
2019-04-28T06:49:21.836Z,8.30
2019-04-28T06:51:49.396Z,8.40
2019-04-28T06:54:16.945Z,8.50
2019-04-28T06:56:44.483Z,8.60
2019-04-28T06:59:12.036Z,8.70
2019-04-28T07:01:39.588Z,8.70
2019-04-28T07:04:07.136Z,8.90
2019-04-28T07:06:34.697Z,9.00
2019-04-28T07:09:02.306Z,9.20
2019-04-28T07:11:29.858Z,9.30
2019-04-28T07:13:57.436Z,9.60
2019-04-28T07:16:24.960Z,9.60
2019-04-28T07:18:52.535Z,9.90
2019-04-28T07:21:21.702Z,10.00
2019-04-28T07:23:49.264Z,10.00
2019-04-28T07:26:16.819Z,10.00
2019-04-28T07:28:44.369Z,10.10
2019-04-28T07:31:12.020Z,10.10
2019-04-28T07:33:39.542Z,10.00
2019-04-28T07:36:07.089Z,10.00
2019-04-28T07:38:34.706Z,9.90
2019-04-28T07:41:02.264Z,9.90
2019-04-28T07:43:29.828Z,10.00
2019-04-28T07:45:57.363Z,10.00
2019-04-28T07:48:24.957Z,10.10
2019-04-28T07:50:52.552Z,10.20
2019-04-28T07:53:24.656Z,10.10
2019-04-28T07:55:52.199Z,10.00
2019-04-28T07:58:19.768Z,9.90
2019-04-28T08:00:48.828Z,10.00
2019-04-28T08:03:16.535Z,10.10
2019-04-28T08:05:44.093Z,10.40
2019-04-28T08:08:11.694Z,10.70
2019-04-28T08:10:39.289Z,10.80
2019-04-28T08:13:06.931Z,10.70
2019-04-28T08:15:34.427Z,10.60
2019-04-28T08:18:01.991Z,10.60
2019-04-28T08:20:29.534Z,10.60
2019-04-28T08:22:57.260Z,10.50
2019-04-28T08:25:24.988Z,10.50
2019-04-28T08:27:52.637Z,10.40
2019-04-28T08:30:20.194Z,10.40
2019-04-28T08:32:58.710Z,10.40
2019-04-28T08:35:26.293Z,10.70
2019-04-28T08:38:13.252Z,10.90
2019-04-28T08:40:40.816Z,11.20
2019-04-28T08:43:08.426Z,11.50
2019-04-28T08:45:35.957Z,11.50
2019-04-28T08:48:03.575Z,11.30
2019-04-28T08:50:31.244Z,11.00
2019-04-28T08:52:58.851Z,10.60
2019-04-28T08:55:26.396Z,10.30
2019-04-28T08:57:53.953Z,10.00
2019-04-28T09:00:22.051Z,9.80
2019-04-28T09:02:49.604Z,9.50
2019-04-28T09:05:17.158Z,9.50
2019-04-28T09:07:44.706Z,9.70
2019-04-28T09:10:12.285Z,10.00
2019-04-28T09:12:39.849Z,9.90
2019-04-28T09:15:07.371Z,9.80
2019-04-28T09:17:34.958Z,10.00
2019-04-28T09:20:02.499Z,10.30
2019-04-28T09:22:30.035Z,10.60
2019-04-28T09:24:57.639Z,10.80
2019-04-28T09:27:25.176Z,10.80
2019-04-28T09:29:52.732Z,10.80
2019-04-28T09:32:20.304Z,10.60
2019-04-28T09:34:47.848Z,10.30
2019-04-28T09:37:15.404Z,10.50
2019-04-28T09:39:44.606Z,10.60
2019-04-28T09:42:31.669Z,10.60
2019-04-28T09:45:01.492Z,10.70
2019-04-28T09:47:29.166Z,10.70
2019-04-28T09:49:56.724Z,10.50
2019-04-28T09:52:24.255Z,10.80
2019-04-28T09:54:51.828Z,11.10
2019-04-28T09:57:19.367Z,11.20
2019-04-28T09:59:46.902Z,11.50
2019-04-28T10:02:14.491Z,12.30
2019-04-28T10:04:42.349Z,13.20
2019-04-28T10:07:10.080Z,14.10
2019-04-28T10:09:37.645Z,15.20
2019-04-28T10:12:05.209Z,15.80
2019-04-28T10:14:32.747Z,16.40
2019-04-28T10:17:00.277Z,17.00
2019-04-28T10:19:27.843Z,16.90
2019-04-28T10:21:55.390Z,17.40
2019-04-28T10:24:22.934Z,17.60
2019-04-28T10:26:50.493Z,18.70
2019-04-28T10:29:18.070Z,19.70
2019-04-28T10:31:45.595Z,20.40
2019-04-28T10:34:13.160Z,22.00
2019-04-28T10:36:40.728Z,21.80
2019-04-28T10:39:26.261Z,22.20
2019-04-28T10:41:54.780Z,23.40
2019-04-28T10:44:22.846Z,24.20
2019-04-28T10:46:50.440Z,24.30
2019-04-28T10:49:17.993Z,21.80
2019-04-28T10:51:53.047Z,19.20
2019-04-28T10:54:14.823Z,18.90
2019-04-28T10:56:42.388Z,19.40
2019-04-28T10:59:10.036Z,19.90
2019-04-28T11:01:37.582Z,19.40
2019-04-28T11:04:09.708Z,18.90
2019-04-28T11:06:37.269Z,18.40
2019-04-28T11:09:09.992Z,18.10
2019-04-28T11:11:37.638Z,17.80
2019-04-28T11:14:05.184Z,17.60
2019-04-28T11:16:34.503Z,17.50
2019-04-28T11:19:02.072Z,18.20
2019-04-28T11:21:29.619Z,18.90
2019-04-28T11:23:57.184Z,18.80
2019-04-28T11:26:24.733Z,18.30
2019-04-28T11:28:52.558Z,18.40
2019-04-28T11:31:20.095Z,18.40
2019-04-28T11:33:55.447Z,18.50
2019-04-28T11:36:23.080Z,18.40
2019-04-28T11:38:50.608Z,18.30
2019-04-28T11:41:18.182Z,17.30
2019-04-28T11:43:45.713Z,16.30
2019-04-28T11:46:14.910Z,15.30
2019-04-28T11:48:42.452Z,15.00
2019-04-28T11:51:10.003Z,14.70
2019-04-28T11:53:37.582Z,14.60
2019-04-28T11:56:05.131Z,14.70
2019-04-28T11:58:32.690Z,14.60
2019-04-28T12:01:00.487Z,14.00
2019-04-28T12:03:28.052Z,13.50
2019-04-28T12:05:55.617Z,13.00
2019-04-28T12:08:23.223Z,13.00
2019-04-28T12:10:52.422Z,13.00
2019-04-28T12:13:37.991Z,12.90
2019-04-28T12:16:22.252Z,12.80
2019-04-28T12:18:54.418Z,12.80
2019-04-28T12:21:22.094Z,12.70
2019-04-28T12:23:49.648Z,12.50
2019-04-28T12:26:17.183Z,13.80
2019-04-28T12:28:44.743Z,16.60
2019-04-28T12:31:12.301Z,18.60
2019-04-28T12:33:39.847Z,20.20
2019-04-28T12:36:08.323Z,19.70
2019-04-28T12:38:35.907Z,18.90
2019-04-28T12:41:03.458Z,19.70
2019-04-28T12:43:30.999Z,21.10
2019-04-28T12:45:58.577Z,22.40
2019-04-28T12:48:26.114Z,22.30
2019-04-28T12:50:54.170Z,22.30
2019-04-28T12:53:23.390Z,22.80
2019-04-28T12:55:50.947Z,23.40
2019-04-28T12:58:18.516Z,23.70
2019-04-28T13:01:03.023Z,24.30
2019-04-28T13:03:43.857Z,25.20
2019-04-28T13:06:15.993Z,24.70
2019-04-28T13:08:43.532Z,24.60
2019-04-28T13:11:11.150Z,24.60
2019-04-28T13:13:38.740Z,25.10
2019-04-28T13:16:06.339Z,24.40
2019-04-28T13:18:33.903Z,23.70
2019-04-28T13:21:01.435Z,23.30
2019-04-28T13:23:29.012Z,22.40
2019-04-28T13:25:56.557Z,20.90
2019-04-28T13:28:24.108Z,20.00
2019-04-28T13:30:51.648Z,20.00
2019-04-28T13:33:19.187Z,20.00
2019-04-28T13:35:46.752Z,20.60
2019-04-28T13:38:14.379Z,21.10
2019-04-28T13:40:42.178Z,22.80
2019-04-28T13:43:09.840Z,22.50
2019-04-28T13:45:37.420Z,22.60
2019-04-28T13:48:05.136Z,22.30
2019-04-28T13:50:36.595Z,22.60
2019-04-28T13:53:04.611Z,22.40
2019-04-28T13:55:45.950Z,22.20
2019-04-28T13:58:13.589Z,21.90
2019-04-28T14:00:59.273Z,21.10
2019-04-28T14:03:31.200Z,21.70
2019-04-28T14:06:00.399Z,20.60
2019-04-28T14:08:27.947Z,20.70
2019-04-28T14:10:55.544Z,19.90
2019-04-28T14:13:23.067Z,19.10
2019-04-28T14:15:50.672Z,19.10
2019-04-28T14:18:18.298Z,19.40
2019-04-28T14:20:45.916Z,18.50
2019-04-28T14:23:13.546Z,19.00
2019-04-28T14:25:41.076Z,19.20
2019-04-28T14:28:08.625Z,18.70
2019-04-28T14:30:36.173Z,18.90
2019-04-28T14:33:03.859Z,18.40
2019-04-28T14:35:31.931Z,18.50
2019-04-28T14:37:59.468Z,18.00
2019-04-28T14:40:27.038Z,18.00
2019-04-28T14:42:54.589Z,18.30
2019-04-28T14:45:22.149Z,18.40
2019-04-28T14:47:49.864Z,18.20
2019-04-28T14:50:17.406Z,18.10
2019-04-28T14:52:44.950Z,17.90
2019-04-28T14:55:12.495Z,17.50
2019-04-28T14:57:40.050Z,17.40
2019-04-28T15:00:09.320Z,17.60
2019-04-28T15:02:50.705Z,17.60
2019-04-28T15:05:23.019Z,17.70
2019-04-28T15:07:55.089Z,18.00
2019-04-28T15:10:24.324Z,18.00
2019-04-28T15:12:51.902Z,17.50
2019-04-28T15:15:20.208Z,17.00
2019-04-28T15:17:47.961Z,17.00
2019-04-28T15:20:15.820Z,17.20
2019-04-28T15:22:43.399Z,17.50
2019-04-28T15:25:10.950Z,17.60
2019-04-28T15:27:38.496Z,17.80
2019-04-28T15:30:06.639Z,17.90
2019-04-28T15:32:34.182Z,18.10
2019-04-28T15:35:01.733Z,18.10
2019-04-28T15:37:29.288Z,18.20
2019-04-28T15:39:56.819Z,18.00
2019-04-28T15:42:24.375Z,17.90
2019-04-28T15:44:51.926Z,18.00
2019-04-28T15:47:19.463Z,17.90
2019-04-28T15:49:47.174Z,18.10
2019-04-28T15:52:14.767Z,18.20
2019-04-28T15:54:42.331Z,18.20
2019-04-28T15:57:09.850Z,17.60
2019-04-28T15:59:37.402Z,17.00
2019-04-28T16:02:04.974Z,16.30
2019-04-28T16:04:32.506Z,16.00
2019-04-28T16:07:00.087Z,15.70
2019-04-28T16:09:27.627Z,15.70
2019-04-28T16:11:55.198Z,15.50
2019-04-28T16:14:22.744Z,15.30
2019-04-28T16:16:50.304Z,15.10
2019-04-28T16:19:17.852Z,14.90
2019-04-28T16:21:45.419Z,14.80
2019-04-28T16:24:12.952Z,14.70
2019-04-28T16:26:40.499Z,14.60
2019-04-28T16:29:08.062Z,14.50
2019-04-28T16:31:35.614Z,14.50
2019-04-28T16:34:03.174Z,14.50
2019-04-28T16:36:30.701Z,14.40
2019-04-28T16:38:58.247Z,14.20
2019-04-28T16:41:33.327Z,14.10
2019-04-28T16:44:03.756Z,14.20
2019-04-28T16:46:31.291Z,14.30
2019-04-28T16:48:58.839Z,14.40
2019-04-28T16:51:26.386Z,14.60
2019-04-28T16:53:53.951Z,14.70
2019-04-28T16:56:29.059Z,14.80
2019-04-28T16:59:01.264Z,14.70
2019-04-28T17:01:46.818Z,14.70
2019-04-28T17:04:14.363Z,14.70
2019-04-28T17:06:41.983Z,14.60
2019-04-28T17:09:10.016Z,14.50
2019-04-28T17:11:37.554Z,14.40
2019-04-28T17:14:05.128Z,14.20
2019-04-28T17:16:32.671Z,14.10
2019-04-28T17:19:00.238Z,14.00
2019-04-28T17:21:27.775Z,13.90
2019-04-28T17:23:55.329Z,13.80
2019-04-28T17:26:22.909Z,13.70
2019-04-28T17:28:50.445Z,13.70
2019-04-28T17:31:18.013Z,13.60
2019-04-28T17:33:45.599Z,13.60
2019-04-28T17:36:13.256Z,13.50
2019-04-28T17:38:40.792Z,13.40
2019-04-28T17:41:08.351Z,13.30
2019-04-28T17:43:35.892Z,13.20
2019-04-28T17:46:03.586Z,13.20
2019-04-28T17:48:32.810Z,13.20
2019-04-28T17:51:00.374Z,13.00
2019-04-28T17:53:27.935Z,13.00
2019-04-28T17:55:55.490Z,13.00
2019-04-28T17:58:23.011Z,13.00
2019-04-28T18:00:55.186Z,13.00
2019-04-28T18:03:41.048Z,13.00
2019-04-28T18:06:17.967Z,13.00
2019-04-28T18:08:42.206Z,12.90
2019-04-28T18:11:09.767Z,12.90
2019-04-28T18:13:37.304Z,12.90
2019-04-28T18:16:22.800Z,12.80
2019-04-28T18:18:54.716Z,12.70
2019-04-28T18:21:22.281Z,12.60
2019-04-28T18:23:49.814Z,12.60
2019-04-28T18:26:17.383Z,12.50
2019-04-28T18:28:44.929Z,12.40
2019-04-28T18:31:14.095Z,12.40
2019-04-28T18:33:59.630Z,12.30
2019-04-28T18:36:43.847Z,12.30
2019-04-28T18:39:18.973Z,12.30
2019-04-28T18:41:48.195Z,12.20
2019-04-28T18:44:20.586Z,12.20
2019-04-28T18:46:48.148Z,12.10
2019-04-28T18:49:15.767Z,12.00
2019-04-28T18:51:43.314Z,12.00
2019-04-28T18:54:10.845Z,11.90
2019-04-28T18:56:38.398Z,11.80
2019-04-28T18:59:05.945Z,11.80
2019-04-28T19:01:43.953Z,11.70
2019-04-28T19:04:11.489Z,11.70
2019-04-28T19:06:39.052Z,11.60
2019-04-28T19:09:24.894Z,11.60
2019-04-28T19:11:54.093Z,11.50
2019-04-28T19:14:23.426Z,11.50
2019-04-28T19:17:04.566Z,11.40
2019-04-28T19:19:33.754Z,11.30
2019-04-28T19:22:01.287Z,11.20
2019-04-28T19:24:28.870Z,11.20
2019-04-28T19:26:56.416Z,11.20
2019-04-28T19:29:23.977Z,11.10
2019-04-28T19:31:51.517Z,11.10
2019-04-28T19:34:19.059Z,11.10
2019-04-28T19:36:46.646Z,10.90
2019-04-28T19:39:14.192Z,10.90
2019-04-28T19:41:41.777Z,10.70
2019-04-28T19:44:09.445Z,10.70
2019-04-28T19:46:37.021Z,10.60
2019-04-28T19:49:04.576Z,10.60
2019-04-28T19:51:32.367Z,10.50
2019-04-28T19:54:00.368Z,10.50
2019-04-28T19:56:29.580Z,10.50
2019-04-28T19:59:01.728Z,10.40
2019-04-28T20:01:30.905Z,10.50
2019-04-28T20:03:58.457Z,10.50
2019-04-28T20:06:26.006Z,10.50
2019-04-28T20:08:53.577Z,10.50
2019-04-28T20:11:21.118Z,10.40
2019-04-28T20:13:48.664Z,10.40
2019-04-28T20:16:16.318Z,10.30
2019-04-28T20:18:43.873Z,10.30
2019-04-28T20:21:11.614Z,10.30
2019-04-28T20:23:39.176Z,10.30
2019-04-28T20:26:06.708Z,10.30
2019-04-28T20:28:34.398Z,10.30
2019-04-28T20:31:01.930Z,10.20
2019-04-28T20:33:29.523Z,10.20
2019-04-28T20:35:58.757Z,10.10
2019-04-28T20:38:27.955Z,10.10
2019-04-28T20:41:00.205Z,10.10
2019-04-28T20:43:28.789Z,10.10
2019-04-28T20:45:56.343Z,10.00
2019-04-28T20:48:23.899Z,9.90
2019-04-28T20:50:51.544Z,10.00
2019-04-28T20:53:19.418Z,9.90
2019-04-28T20:55:47.021Z,9.90
2019-04-28T20:58:14.542Z,9.80
2019-04-28T21:00:42.778Z,9.80
2019-04-28T21:03:10.298Z,9.60
2019-04-28T21:05:37.833Z,9.60
2019-04-28T21:08:05.404Z,9.60
2019-04-28T21:10:38.195Z,9.50
2019-04-28T21:13:02.378Z,9.40
2019-04-28T21:15:29.924Z,9.40
2019-04-28T21:17:57.469Z,9.30
2019-04-28T21:20:25.004Z,9.30
2019-04-28T21:22:52.582Z,9.30
2019-04-28T21:25:20.116Z,9.40
2019-04-28T21:27:47.642Z,9.30
2019-04-28T21:30:15.200Z,9.20
2019-04-28T21:32:42.750Z,9.20
2019-04-28T21:35:10.279Z,9.30
2019-04-28T21:37:37.902Z,9.30
2019-04-28T21:40:06.599Z,9.20
2019-04-28T21:42:35.789Z,9.20
2019-04-28T21:45:20.375Z,9.20
2019-04-28T21:47:47.904Z,9.20
2019-04-28T21:50:15.436Z,9.10
2019-04-28T21:52:43.004Z,9.10
2019-04-28T21:55:10.616Z,9.00
2019-04-28T21:57:38.150Z,8.90
2019-04-28T22:00:09.343Z,8.80
2019-04-28T22:02:36.881Z,8.80
2019-04-28T22:05:05.594Z,8.80
2019-04-28T22:07:33.151Z,8.80
2019-04-28T22:10:00.682Z,8.80
2019-04-28T22:12:28.259Z,8.60
2019-04-28T22:14:55.795Z,8.50
2019-04-28T22:17:23.331Z,8.50
2019-04-28T22:19:50.887Z,8.50
2019-04-28T22:22:18.417Z,8.40
2019-04-28T22:24:47.605Z,8.40
2019-04-28T22:27:16.562Z,8.40
2019-04-28T22:29:44.090Z,8.30
2019-04-28T22:32:11.619Z,8.20
2019-04-28T22:34:39.180Z,8.20
2019-04-28T22:37:07.659Z,8.10
2019-04-28T22:39:35.185Z,8.00
2019-04-28T22:42:02.745Z,7.90
2019-04-28T22:44:30.284Z,7.90
2019-04-28T22:46:57.838Z,7.80
2019-04-28T22:49:25.439Z,7.80
2019-04-28T22:51:52.992Z,7.70
2019-04-28T22:54:22.185Z,7.70
2019-04-28T22:56:51.360Z,7.60
2019-04-28T22:59:20.564Z,7.70
2019-04-28T23:02:01.784Z,7.70
2019-04-28T23:04:36.807Z,7.70
2019-04-28T23:07:04.372Z,7.70
2019-04-28T23:09:31.898Z,7.70
2019-04-28T23:11:59.468Z,7.60
2019-04-28T23:14:27.044Z,7.60
2019-04-28T23:16:54.584Z,7.60
2019-04-28T23:19:23.784Z,7.60
2019-04-28T23:21:59.192Z,7.50
2019-04-28T23:24:26.728Z,7.50
2019-04-28T23:26:54.354Z,7.50
2019-04-28T23:29:21.906Z,7.50
2019-04-28T23:31:49.439Z,7.40
2019-04-28T23:34:16.966Z,7.40
2019-04-28T23:36:44.605Z,7.30
2019-04-28T23:39:12.151Z,7.30
2019-04-28T23:41:44.518Z,7.20
2019-04-28T23:44:12.056Z,7.20
2019-04-28T23:46:56.677Z,7.30
2019-04-28T23:49:24.923Z,7.20
2019-04-28T23:51:54.097Z,7.20
2019-04-28T23:54:21.680Z,7.20
2019-04-28T23:56:49.206Z,7.20
2019-04-28T23:59:16.785Z,7.20
